Terminal Aerodrome Forecast
Issued by NWS

Home | Current Version | Previous Version | Text Only | Print | Product List | Glossary On
Versions: 1 2 3 4 5 6 7 8 9 10 11 12 13 14 15 16
000
FTUS45 KTFX 281300 AAA
TAFGTF
TAF AMD
KGTF 281355Z 2814/2912 32010KT 2SM -SN BR SCT005 BKN015
      TEMPO 2814/2817 1SM -SN BKN005
     FM281700 35014KT 4SM -SN BR SCT008 BKN020
      TEMPO 2817/2820 2SM -SN BKN008
     FM282000 36012KT 3SM -SN SCT008 BKN025
     FM290400 35010KT 5SM -SN BR BKN035=

USA.gov is the U.S. government's official web portal to all federal, state and local government web resources and services.